Time;durP1;ratioP1;P1;durP2;ratioP2;P2;SDS_P1;SDS_P2;PMS_P1;PMS_P2;Temp;Humidity;BMP_temperature;BMP_pressure;BME280_temperature;BME280_humidity;BME280_pressure;Samples;Min_cycle;Max_cycle;Signal;HPM_P1;HPM_P2
2022/04/28 00:00:44;;;;;;;10.43;6.37;;;;;;;7.02;100.00;99915.38;1634974;87;21047;-66
2022/04/28 00:03:12;;;;;;;9.18;5.60;;;;;;;7.01;100.00;99918.29;1635887;87;21519;-67
2022/04/28 00:05:41;;;;;;;6.85;5.67;;;;;;;7.00;100.00;99923.31;1636111;87;21028;-68
2022/04/28 00:08:08;;;;;;;5.30;4.73;;;;;;;6.98;100.00;99918.70;1665165;85;21166;-67
2022/04/28 00:10:36;;;;;;;7.20;5.40;;;;;;;6.99;100.00;99921.69;1664985;86;21188;-70
2022/04/28 00:13:05;;;;;;;6.87;5.08;;;;;;;6.99;100.00;99915.83;1664901;86;20988;-67
2022/04/28 00:15:33;;;;;;;;;;;;;;;7.00;100.00;99921.45;1667571;86;20992;-70
2022/04/28 00:18:00;;;;;;;5.30;4.80;;;;;;;7.05;100.00;99926.94;1665026;86;20170;-69
2022/04/28 00:20:27;;;;;;;6.47;4.90;;;;;;;7.06;100.00;99929.92;1665120;86;21184;-69
2022/04/28 00:22:54;;;;;;;7.62;4.78;;;;;;;7.02;100.00;99927.91;1634797;87;21008;-68
2022/04/28 00:25:22;;;;;;;5.22;4.30;;;;;;;6.94;100.00;99929.02;1665306;86;20952;-68
2022/04/28 00:27:51;;;;;;;7.00;4.70;;;;;;;6.88;100.00;99931.22;1664676;84;20956;-68
2022/04/28 00:30:17;;;;;;;4.85;3.80;;;;;;;6.84;100.00;99927.38;1664788;86;21431;-67
2022/04/28 00:32:44;;;;;;;3.95;3.62;;;;;;;6.80;100.00;99930.99;1665428;86;21226;-70
2022/04/28 00:35:12;;;;;;;5.25;4.00;;;;;;;6.79;100.00;99928.03;1644799;86;20916;-68
2022/04/28 00:37:38;;;;;;;3.70;3.40;;;;;;;6.80;100.00;99926.98;1665284;86;20951;-69
2022/04/28 00:40:07;;;;;;;4.83;3.90;;;;;;;6.81;100.00;99927.80;1635415;87;20968;-69
2022/04/28 00:42:35;;;;;;;4.80;4.40;;;;;;;6.77;100.00;99928.77;1665591;86;20897;-68
2022/04/28 00:45:03;;;;;;;4.42;3.90;;;;;;;6.78;100.00;99923.72;1635242;87;21957;-67
2022/04/28 00:53:01;;;;;;;4.37;3.98;;;;;;;6.64;100.00;99936.38;1665576;86;20923;-67
2022/04/28 00:55:28;;;;;;;4.15;3.85;;;;;;;6.61;100.00;99937.31;1635355;86;20884;-68
2022/04/28 00:57:55;;;;;;;4.67;4.00;;;;;;;6.57;100.00;99932.14;1666049;86;21491;-67
2022/04/28 01:00:23;;;;;;;4.35;3.95;;;;;;;6.53;100.00;99934.94;1639992;87;20964;-68
2022/04/28 01:02:50;;;;;;;6.13;4.00;;;;;;;6.49;100.00;99931.87;1666568;86;21459;-68
2022/04/28 01:05:18;;;;;;;4.53;4.12;;;;;;;6.44;100.00;99930.38;1646172;86;20940;-67
2022/04/28 01:07:47;;;;;;;8.15;4.95;;;;;;;6.40;100.00;99931.86;1670518;85;21427;-67
2022/04/28 01:10:15;;;;;;;13.13;5.55;;;;;;;6.35;100.00;99931.70;1658376;86;21267;-67
2022/04/28 01:12:42;;;;;;;18.60;10.05;;;;;;;6.32;100.00;99933.44;1638972;87;20873;-68
2022/04/28 01:15:09;;;;;;;19.60;10.43;;;;;;;6.29;100.00;99932.55;1638673;87;20971;-68
2022/04/28 01:17:37;;;;;;;29.72;13.40;;;;;;;6.25;100.00;99932.17;1647960;87;20959;-68
2022/04/28 01:20:07;;;;;;;23.60;12.07;;;;;;;6.16;100.00;99924.95;1638610;87;21483;-67
2022/04/28 01:22:37;;;;;;;18.57;9.73;;;;;;;6.08;100.00;99925.22;1618953;88;20943;-68
2022/04/28 01:25:08;;;;;;;36.00;16.80;;;;;;;5.98;100.00;99919.55;1643828;85;20886;-67
2022/04/28 01:27:36;;;;;;;;;;;;;;;5.88;100.00;99925.31;1666410;86;20936;-67
2022/04/28 01:30:05;;;;;;;55.65;25.80;;;;;;;5.80;100.00;99923.69;1659926;86;20096;-67
2022/04/28 01:32:33;;;;;;;53.33;28.75;;;;;;;5.74;100.00;99930.41;1661750;86;20967;-68
2022/04/28 01:34:59;;;;;;;45.78;22.17;;;;;;;5.68;100.00;99925.39;1645255;87;21121;-68
2022/04/28 01:37:27;;;;;;;41.68;20.88;;;;;;;5.65;100.00;99919.69;1661412;86;20927;-68
2022/04/28 01:39:56;;;;;;;30.25;17.02;;;;;;;5.63;100.00;99917.74;1645368;86;20964;-69
2022/04/28 01:42:24;;;;;;;30.20;15.98;;;;;;;5.62;100.00;99913.45;1645251;87;20969;-68
2022/04/28 01:44:51;;;;;;;22.27;12.30;;;;;;;5.62;100.00;99920.11;1645223;86;20971;-68
2022/04/28 01:47:18;;;;;;;19.75;11.08;;;;;;;5.58;100.00;99909.05;1645348;87;21873;-67
2022/04/28 01:49:58;;;;;;;25.43;11.85;;;;;;;5.57;100.00;99915.42;1641002;86;20907;-67
2022/04/28 01:55:31;;;;;;;17.73;10.63;;;;;;;5.52;100.00;99913.39;1617068;88;20952;-68
2022/04/28 01:58:01;;;;;;;22.67;12.10;;;;;;;5.50;100.00;99918.63;1617023;88;20960;-68
2022/04/28 02:00:29;;;;;;;28.62;17.00;;;;;;;5.49;100.00;99921.00;1617085;87;25124;-66
2022/04/28 02:02:58;;;;;;;54.60;26.00;;;;;;;5.46;100.00;99914.73;1617087;88;20948;-67
2022/04/28 02:05:26;;;;;;;73.92;30.88;;;;;;;5.42;100.00;99922.87;1627005;86;20928;-68
2022/04/28 02:07:53;;;;;;;55.85;26.87;;;;;;;5.38;100.00;99917.94;1629106;87;20964;-68
2022/04/28 02:10:19;;;;;;;38.15;18.00;;;;;;;5.35;100.00;99919.70;1631296;88;20952;-68
2022/04/28 02:12:47;;;;;;;25.82;14.65;;;;;;;5.31;100.00;99914.48;1631506;86;21115;-67
2022/04/28 02:15:16;;;;;;;20.05;11.45;;;;;;;5.28;100.00;99912.25;1631168;88;20919;-69
2022/04/28 02:18:01;;;;;;;12.63;8.78;;;;;;;5.25;100.00;99908.69;1631532;88;20932;-68
2022/04/28 02:20:28;;;;;;;12.33;7.33;;;;;;;5.23;100.00;99912.06;1631465;88;20968;-68
2022/04/28 02:22:55;;;;;;;7.33;5.30;;;;;;;5.25;100.00;99911.34;1633097;87;20925;-68
2022/04/28 02:25:22;;;;;;;7.35;6.12;;;;;;;5.27;100.00;99913.81;1632906;87;21223;-68
2022/04/28 02:27:51;;;;;;;9.25;5.55;;;;;;;5.27;100.00;99912.48;1643731;86;20917;-68
2022/04/28 02:30:21;;;;;;;6.40;5.12;;;;;;;5.24;100.00;99919.05;1668715;84;20897;-67
2022/04/28 02:35:34;;;;;;;5.60;4.87;;;;;;;5.20;100.00;99914.34;1667290;86;20878;-68
2022/04/28 02:38:01;;;;;;;8.45;5.53;;;;;;;5.14;100.00;99915.98;1669071;86;21163;-67
2022/04/28 02:40:27;;;;;;;6.83;5.62;;;;;;;5.10;100.00;99916.11;1649183;87;20937;-67
2022/04/28 02:42:56;;;;;;;6.58;4.92;;;;;;;5.02;100.00;99916.31;1648112;87;20922;-69
2022/04/28 02:45:23;;;;;;;6.00;4.40;;;;;;;4.94;100.00;99913.37;1638355;87;20929;-68
2022/04/28 02:47:51;;;;;;;5.30;4.78;;;;;;;4.90;100.00;99915.64;1666783;84;20916;-67
2022/04/28 02:50:21;;;;;;;7.72;4.90;;;;;;;4.94;100.00;99923.49;1667528;86;21265;-68
2022/04/28 02:52:47;;;;;;;;;;;;;;;4.95;100.00;99917.69;1648630;87;20961;-69
2022/04/28 02:55:14;;;;;;;4.97;3.80;;;;;;;4.99;100.00;99923.39;1646263;86;20091;-68
2022/04/28 02:57:41;;;;;;;6.60;4.50;;;;;;;4.98;100.00;99918.59;1637197;85;21005;-69
2022/04/28 03:00:09;;;;;;;6.10;4.50;;;;;;;5.02;100.00;99922.97;1650482;87;20910;-68
2022/04/28 03:02:39;;;;;;;5.03;4.55;;;;;;;5.00;100.00;99929.84;1647041;87;21429;-68
2022/04/28 03:05:07;;;;;;;7.25;5.08;;;;;;;5.01;100.00;99929.33;1647704;87;20970;-68
2022/04/28 03:10:53;;;;;;;5.67;4.87;;;;;;;5.01;100.00;99936.79;1647381;87;20985;-69
2022/04/28 03:13:23;;;;;;;7.53;4.75;;;;;;;5.02;100.00;99937.11;1647694;87;20960;-69
2022/04/28 03:15:51;;;;;;;8.08;5.80;;;;;;;5.06;100.00;99941.48;1647524;87;21444;-68
2022/04/28 03:18:20;;;;;;;10.53;5.28;;;;;;;5.13;100.00;99945.77;1647907;87;20897;-68
2022/04/28 03:20:47;;;;;;;8.23;4.80;;;;;;;5.20;100.00;99947.09;1616145;87;20947;-68
2022/04/28 03:23:14;;;;;;;6.58;5.55;;;;;;;5.26;100.00;99951.56;1619872;88;20953;-69
2022/04/28 03:25:43;;;;;;;8.40;5.45;;;;;;;5.31;100.00;99949.09;1619713;88;20931;-67
2022/04/28 03:28:10;;;;;;;7.53;6.40;;;;;;;5.37;100.00;99950.92;1620113;88;21113;-68
2022/04/28 03:30:37;;;;;;;10.60;6.47;;;;;;;5.44;100.00;99952.25;1626967;87;20885;-68
2022/04/28 03:33:05;;;;;;;8.15;5.35;;;;;;;5.50;100.00;99952.72;1662327;85;21252;-68
2022/04/28 03:35:32;;;;;;;10.98;6.03;;;;;;;5.56;100.00;99961.21;1608760;88;20905;-69
2022/04/28 03:38:01;;;;;;;21.65;12.30;;;;;;;5.65;100.00;99971.09;1636644;87;20928;-69
2022/04/28 03:40:29;;;;;;;;;;;;;;;5.74;100.00;99977.83;1664760;86;21123;-69
2022/04/28 03:42:57;;;;;;;24.65;11.80;;;;;;;5.85;100.00;99984.32;1662532;86;20089;-69
2022/04/28 03:45:26;;;;;;;19.10;11.78;;;;;;;5.89;100.00;99984.21;1610271;88;20964;-68
2022/04/28 03:47:53;;;;;;;14.55;9.18;;;;;;;5.93;100.00;99981.95;1612947;87;20932;-68
2022/04/28 03:50:22;;;;;;;15.20;7.67;;;;;;;5.98;100.00;99980.31;1636420;87;21548;-68
2022/04/28 03:52:48;;;;;;;6.92;5.60;;;;;;;6.05;100.00;99982.95;1666040;85;21204;-69
2022/04/28 03:55:14;;;;;;;7.72;4.83;;;;;;;6.14;100.00;99986.16;1647625;86;21442;-68
2022/04/28 03:57:42;;;;;;;5.15;4.65;;;;;;;6.23;100.00;99984.89;1647853;87;20940;-68
2022/04/28 04:00:12;;;;;;;5.10;4.15;;;;;;;6.32;100.00;99989.42;1647530;86;21458;-69
2022/04/28 04:02:42;;;;;;;9.13;5.58;;;;;;;6.39;100.00;99991.05;1647714;87;20924;-70
2022/04/28 04:05:11;;;;;;;9.35;7.30;;;;;;;6.45;100.00;99986.69;1623553;87;21199;-69
2022/04/28 04:07:38;;;;;;;9.25;7.55;;;;;;;6.52;100.00;99993.32;1641880;87;20916;-69
2022/04/28 04:10:25;;;;;;;9.90;8.00;;;;;;;6.58;100.00;99991.10;1671809;85;20967;-70
2022/04/28 04:12:55;;;;;;;14.83;10.03;;;;;;;6.61;100.00;99998.17;1673675;85;20911;-68
2022/04/28 04:15:23;;;;;;;18.17;9.85;;;;;;;6.65;100.00;99996.69;1669140;85;20979;-69
2022/04/28 04:17:57;;;;;;;12.10;7.58;;;;;;;6.72;100.00;100005.98;1637330;86;21435;-69
2022/04/28 04:20:27;;;;;;;12.35;7.37;;;;;;;6.82;100.00;100008.16;1637096;87;20884;-68
2022/04/28 04:22:55;;;;;;;17.70;7.80;;;;;;;6.90;100.00;100013.73;1647383;87;20945;-68
2022/04/28 04:25:23;;;;;;;12.23;7.15;;;;;;;6.99;100.00;100007.91;1647467;87;21506;-69
2022/04/28 04:27:52;;;;;;;17.95;9.58;;;;;;;7.08;100.00;100015.12;1647353;87;21144;-69
2022/04/28 04:33:21;;;;;;;11.78;7.40;;;;;;;7.27;100.00;100015.44;1622465;87;20917;-68
2022/04/28 04:35:47;;;;;;;16.30;6.03;;;;;;;7.39;100.00;100011.52;1650052;87;21391;-67
2022/04/28 04:38:14;;;;;;;10.00;5.87;;;;;;;7.50;100.00;100014.80;1664005;86;20964;-68
2022/04/28 04:40:42;;;;;;;9.18;5.40;;;;;;;7.58;100.00;100007.53;1663987;85;20881;-68
2022/04/28 04:43:13;;;;;;;9.55;4.20;;;;;;;7.83;100.00;100012.25;1663981;86;20916;-68
2022/04/28 04:45:42;;;;;;;8.13;5.20;;;;;;;8.18;100.00;100016.95;1649152;85;20952;-68
2022/04/28 04:48:12;;;;;;;9.23;5.40;;;;;;;8.57;100.00;100019.63;1633594;87;21419;-66
2022/04/28 04:50:41;;;;;;;12.07;8.30;;;;;;;8.97;100.00;100031.04;1637304;87;20928;-67
2022/04/28 04:53:09;;;;;;;;;;;;;;;9.24;100.00;100033.27;1638867;87;20900;-69
2022/04/28 04:55:42;;;;;;;12.47;5.03;;;;;;;9.54;100.00;100044.37;1612091;87;21114;-68
2022/04/28 04:58:09;;;;;;;7.10;5.37;;;;;;;9.64;100.00;100044.05;1663836;86;20988;-69
2022/04/28 05:00:38;;;;;;;22.02;8.30;;;;;;;9.78;97.61;100047.30;1664164;86;20912;-70
2022/04/28 05:03:16;;;;;;;19.27;10.00;;;;;;;9.71;95.98;100048.48;1641204;86;21003;-71
2022/04/28 05:06:01;;;;;;;19.87;9.25;;;;;;;9.24;90.92;100050.67;1664370;86;21030;-70
2022/04/28 05:08:30;;;;;;;15.88;8.28;;;;;;;8.96;94.01;100047.32;1663385;86;21443;-70
2022/04/28 05:11:00;;;;;;;10.63;6.22;;;;;;;8.86;97.63;100054.58;1665134;85;20904;-68
2022/04/28 05:13:28;;;;;;;10.20;4.97;;;;;;;9.15;92.73;100059.56;1665695;86;20849;-68
2022/04/28 05:15:57;;;;;;;4.45;3.40;;;;;;;9.56;92.18;100053.80;1666288;86;21488;-68
2022/04/28 05:18:28;;;;;;;14.83;3.87;;;;;;;9.97;87.29;100060.53;1661821;86;20900;-71
2022/04/28 05:20:58;;;;;;;7.85;3.65;;;;;;;10.12;85.80;100054.66;1664330;86;20912;-70
2022/04/28 05:23:44;;;;;;;3.60;2.80;;;;;;;10.30;79.88;100061.23;1635162;87;20908;-69
2022/04/28 05:26:28;;;;;;;3.65;3.20;;;;;;;10.08;75.22;100054.34;1615341;88;21509;-69
2022/04/28 05:29:07;;;;;;;4.72;3.30;;;;;;;9.94;77.12;100061.83;1646693;87;21030;-68
2022/04/28 05:31:36;;;;;;;8.53;3.62;;;;;;;9.72;77.39;100059.48;1646985;87;21005;-69
2022/04/28 05:34:05;;;;;;;6.30;3.37;;;;;;;10.03;75.65;100060.95;1646071;87;21284;-68
2022/04/28 05:36:43;;;;;;;4.33;3.10;;;;;;;10.48;72.47;100068.27;1613394;88;20942;-69
2022/04/28 05:39:11;;;;;;;6.92;3.40;;;;;;;10.71;66.89;100076.75;1646526;87;20893;-68
2022/04/28 05:41:38;;;;;;;5.37;3.40;;;;;;;11.00;68.79;100076.17;1615294;87;20995;-68
2022/04/28 05:46:52;;;;;;;4.15;2.90;;;;;;;11.77;60.70;100082.68;1670097;85;20872;-69
2022/04/28 05:49:19;;;;;;;7.53;3.20;;;;;;;11.84;62.87;100073.91;1648384;85;27167;-68
2022/04/28 05:51:46;;;;;;;4.70;2.90;;;;;;;12.02;61.02;100080.87;1615498;88;21504;-69
2022/04/28 05:54:15;;;;;;;2.87;2.25;;;;;;;12.20;59.44;100082.45;1646971;85;21620;-68
2022/04/28 05:56:43;;;;;;;6.05;2.52;;;;;;;12.25;58.51;100087.05;1615276;88;20983;-68
2022/04/28 05:59:13;;;;;;;2.90;2.60;;;;;;;12.19;58.91;100087.53;1650139;85;20960;-69
2022/04/28 06:01:43;;;;;;;4.12;2.58;;;;;;;12.57;59.31;100087.97;1672480;85;20931;-70
2022/04/28 06:04:10;;;;;;;2.60;2.20;;;;;;;12.71;57.71;100093.74;1673184;85;20947;-68
2022/04/28 06:06:37;;;;;;;2.40;2.10;;;;;;;12.74;57.40;100093.77;1673047;85;21479;-69
2022/04/28 06:09:07;;;;;;;3.33;2.40;;;;;;;12.50;55.75;100091.93;1672850;84;21931;-69
2022/04/28 06:11:35;;;;;;;3.42;2.40;;;;;;;12.65;56.02;100100.16;1678131;85;21212;-67
2022/04/28 06:14:02;;;;;;;6.37;2.10;;;;;;;13.02;55.05;100093.50;1678123;85;21016;-69
2022/04/28 06:16:34;;;;;;;4.17;2.95;;;;;;;12.96;52.92;100098.58;1674173;85;20871;-70
2022/04/28 06:19:04;;;;;;;5.35;2.12;;;;;;;13.21;55.98;100093.12;1663790;84;20967;-70
2022/04/28 06:21:49;;;;;;;2.42;2.15;;;;;;;13.43;53.17;100102.48;1692513;84;20920;-69
2022/04/28 06:24:15;;;;;;;3.05;2.02;;;;;;;13.41;54.08;100101.37;1683022;84;21766;-68
2022/04/28 06:26:42;;;;;;;2.75;1.92;;;;;;;12.89;52.75;100100.67;1701445;84;21494;-71
2022/04/28 06:29:09;;;;;;;3.45;2.37;;;;;;;12.42;51.95;100099.90;1701521;84;20948;-69
2022/04/28 06:31:36;;;;;;;2.33;2.12;;;;;;;12.12;53.35;100095.80;1677235;84;20911;-68
2022/04/28 06:34:14;;;;;;;5.70;2.40;;;;;;;12.15;51.16;100101.20;1668664;85;20888;-68
2022/04/28 06:36:43;;;;;;;3.02;2.50;;;;;;;12.71;53.64;100102.36;1673070;85;20955;-69
2022/04/28 06:39:10;;;;;;;6.45;2.67;;;;;;;13.21;51.01;100117.38;1672010;85;20947;-69
2022/04/28 06:41:38;;;;;;;2.83;2.58;;;;;;;13.60;52.10;100118.51;1671510;85;20969;-70
2022/04/28 06:44:08;;;;;;;4.37;2.35;;;;;;;13.94;50.51;100119.78;1667375;86;20943;-69
2022/04/28 06:46:38;;;;;;;5.97;2.27;;;;;;;14.31;47.45;100114.81;1632086;86;21507;-69
2022/04/28 06:49:08;;;;;;;2.85;1.87;;;;;;;14.44;48.52;100120.25;1611904;86;21291;-63
2022/04/28 06:51:55;;;;;;;2.22;1.72;;;;;;;14.50;42.97;100134.58;1671407;86;20931;-68
2022/04/28 06:54:26;;;;;;;9.25;4.50;;;;;;;14.17;40.32;100135.27;1643251;85;20927;-68
2022/04/28 06:56:53;;;;;;;3.00;1.62;;;;;;;14.09;42.83;100140.64;1673157;85;20919;-66
2022/04/28 06:59:23;;;;;;;2.87;1.80;;;;;;;14.18;40.16;100144.98;1673080;85;20912;-67
2022/04/28 07:01:51;;;;;;;2.65;1.50;;;;;;;13.94;39.49;100148.13;1673127;85;21148;-68
2022/04/28 07:04:20;;;;;;;2.37;1.70;;;;;;;14.03;38.82;100151.66;1644142;85;20940;-69
2022/04/28 07:06:47;;;;;;;2.75;1.72;;;;;;;14.43;39.31;100149.70;1673104;85;20932;-68
2022/04/28 07:09:15;;;;;;;11.60;2.27;;;;;;;14.47;41.63;100149.42;1667032;85;20888;-68
2022/04/28 07:11:45;;;;;;;4.80;1.98;;;;;;;14.27;39.71;100150.16;1644410;85;20903;-65
2022/04/28 07:14:17;;;;;;;7.12;1.77;;;;;;;14.04;40.48;100148.72;1645535;85;21410;-68
2022/04/28 07:16:59;;;;;;;6.65;2.33;;;;;;;13.76;42.42;100149.08;1647178;87;20922;-69
2022/04/28 07:19:28;;;;;;;2.87;2.35;;;;;;;13.64;41.46;100160.05;1635935;87;20995;-69
2022/04/28 07:22:02;;;;;;;5.30;2.30;;;;;;;13.36;42.96;100151.77;1594247;88;21437;-68
2022/04/28 07:24:29;;;;;;;5.87;2.50;;;;;;;13.16;43.68;100157.23;1605839;88;20928;-68
2022/04/28 07:26:57;;;;;;;2.58;2.37;;;;;;;12.98;43.88;100157.04;1605664;89;21214;-69
2022/04/28 07:29:27;;;;;;;4.90;2.02;;;;;;;12.99;44.38;100161.92;1605797;89;20916;-70
2022/04/28 07:32:03;;;;;;;7.87;2.50;;;;;;;13.05;44.44;100161.69;1606711;89;21025;-68
2022/04/28 07:34:50;;;;;;;4.20;2.25;;;;;;;13.31;44.83;100157.92;1607151;89;20979;-69
2022/04/28 07:37:34;;;;;;;3.33;2.00;;;;;;;13.92;42.87;100169.16;1580325;90;21538;-71
2022/04/28 07:40:22;;;;;;;3.45;2.20;;;;;;;14.07;41.88;100162.22;1588785;90;21130;-68
2022/04/28 07:42:52;;;;;;;9.35;3.95;;;;;;;14.42;40.74;100162.91;1592563;90;21623;-69
2022/04/28 07:45:22;;;;;;;5.45;2.55;;;;;;;14.73;40.49;100165.77;1573095;90;21551;-68
2022/04/28 07:47:52;;;;;;;6.65;3.37;;;;;;;14.59;40.67;100162.73;1573562;90;21009;-68
2022/04/28 07:50:29;;;;;;;3.47;2.50;;;;;;;14.50;40.83;100161.58;1585371;90;21020;-68
2022/04/28 07:52:57;;;;;;;6.25;2.92;;;;;;;14.14;41.73;100153.35;1569123;91;21223;-69
2022/04/28 07:55:28;;;;;;;6.20;2.30;;;;;;;14.13;42.65;100169.25;1558478;91;20885;-69
2022/04/28 07:57:57;;;;;;;2.25;2.05;;;;;;;14.52;41.34;100158.09;1578484;91;20944;-67
2022/04/28 08:00:26;;;;;;;1.95;1.75;;;;;;;14.33;38.63;100172.08;1578434;90;20992;-67
2022/04/28 08:02:55;;;;;;;2.22;1.80;;;;;;;14.48;37.64;100169.17;1578544;91;20947;-70
2022/04/28 08:05:24;;;;;;;2.67;2.02;;;;;;;14.88;38.33;100171.19;1578441;91;21219;-65
2022/04/28 08:07:53;;;;;;;3.60;1.80;;;;;;;15.34;37.86;100167.20;1574632;91;20972;-68
2022/04/28 08:10:21;;;;;;;4.15;1.90;;;;;;;15.90;36.88;100169.08;1586088;90;21559;-67
2022/04/28 08:12:48;;;;;;;2.45;1.95;;;;;;;16.59;36.01;100164.77;1622866;88;20924;-66
2022/04/28 08:15:26;;;;;;;4.37;2.05;;;;;;;16.75;34.01;100170.10;1635572;86;20911;-64
2022/04/28 08:17:55;;;;;;;3.60;2.22;;;;;;;16.54;36.38;100162.64;1645109;85;20895;-66
2022/04/28 08:20:24;;;;;;;5.72;2.05;;;;;;;16.28;36.85;100162.73;1669236;86;20951;-67
2022/04/28 08:22:52;;;;;;;2.77;2.10;;;;;;;16.35;35.80;100171.92;1617974;87;21489;-67
2022/04/28 08:25:20;;;;;;;4.87;2.20;;;;;;;15.86;35.67;100167.99;1645575;87;20946;-67
2022/04/28 08:27:47;;;;;;;6.55;2.62;;;;;;;15.54;36.57;100170.98;1616718;88;20887;-67
2022/04/28 08:30:15;;;;;;;3.40;2.70;;;;;;;15.61;36.31;100169.63;1645282;87;21213;-68
2022/04/28 08:32:42;;;;;;;4.30;2.62;;;;;;;15.57;35.45;100169.88;1589430;88;20954;-68
2022/04/28 08:35:10;;;;;;;3.37;2.95;;;;;;;15.43;35.78;100166.94;1616335;88;20973;-68
2022/04/28 08:37:40;;;;;;;5.35;2.67;;;;;;;15.31;35.12;100169.61;1616564;88;21038;-67
2022/04/28 08:40:08;;;;;;;3.83;2.77;;;;;;;15.17;36.16;100157.99;1616197;88;20977;-68
2022/04/28 08:42:37;;;;;;;4.33;2.45;;;;;;;15.04;36.41;100162.55;1616313;88;21538;-65
2022/04/28 08:45:11;;;;;;;3.95;2.85;;;;;;;15.20;36.44;100154.74;1610433;87;21526;-69
2022/04/28 08:47:38;;;;;;;8.05;2.80;;;;;;;15.36;36.82;100158.80;1616426;88;20958;-67
2022/04/28 08:50:08;;;;;;;4.72;3.05;;;;;;;15.37;36.17;100158.53;1639572;86;20978;-67
2022/04/28 08:52:55;;;;;;;4.10;2.50;;;;;;;15.46;37.79;100160.69;1644703;87;20899;-68
2022/04/28 08:55:35;;;;;;;5.28;2.62;;;;;;;15.44;35.71;100158.27;1585031;90;21470;-66
2022/04/28 08:58:02;;;;;;;4.67;2.75;;;;;;;15.54;35.19;100154.75;1539036;91;20968;-66
2022/04/28 09:00:31;;;;;;;4.67;2.50;;;;;;;16.19;36.26;100148.96;1618854;88;20939;-65
2022/04/28 09:03:19;;;;;;;2.70;2.17;;;;;;;16.35;35.37;100153.77;1596594;88;20892;-67
2022/04/28 09:06:22;;;;;;;3.12;2.17;;;;;;;17.01;34.71;100154.53;1578675;88;20935;-66
2022/04/28 09:09:11;;;;;;;3.62;2.35;;;;;;;17.09;35.43;100149.30;1618836;88;21607;-69
2022/04/28 09:11:48;;;;;;;7.67;2.12;;;;;;;16.69;33.91;100150.35;1623930;87;21454;-67
2022/04/28 09:14:22;;;;;;;2.15;1.77;;;;;;;16.65;34.01;100143.31;1631101;87;20880;-68
2022/04/28 09:16:59;;;;;;;4.30;2.12;;;;;;;17.01;33.98;100141.77;1649780;87;21600;-68
2022/04/28 09:19:37;;;;;;;4.95;1.95;;;;;;;17.14;35.31;100147.09;1649556;87;20911;-68
2022/04/28 09:22:12;;;;;;;6.62;2.10;;;;;;;17.29;34.37;100146.97;1674562;84;21110;-65
2022/04/28 09:24:48;;;;;;;2.15;1.60;;;;;;;17.66;34.79;100144.20;1677569;85;20884;-68
2022/04/28 09:27:16;;;;;;;6.58;1.70;;;;;;;17.35;33.61;100151.83;1677686;85;20915;-67
2022/04/28 09:29:46;;;;;;;4.42;1.40;;;;;;;17.13;34.21;100146.84;1654293;85;20943;-67
2022/04/28 09:32:17;;;;;;;2.35;1.52;;;;;;;16.89;33.24;100146.19;1671278;85;20923;-67
2022/04/28 09:34:49;;;;;;;3.60;2.10;;;;;;;16.71;35.35;100137.34;1656729;85;21217;-68
2022/04/28 09:37:23;;;;;;;4.87;2.30;;;;;;;17.17;34.04;100145.17;1672215;85;20908;-67
2022/04/28 09:42:48;;;;;;;2.20;1.70;;;;;;;17.12;36.22;100136.55;1677736;85;20923;-66
2022/04/28 09:45:20;;;;;;;1.42;1.32;;;;;;;17.01;36.18;100139.06;1676558;84;21446;-68
2022/04/28 09:48:01;;;;;;;3.22;1.90;;;;;;;16.78;35.04;100133.80;1627770;85;21435;-67
2022/04/28 09:50:32;;;;;;;3.33;1.85;;;;;;;16.72;34.25;100137.03;1649232;87;20954;-67
2022/04/28 09:53:19;;;;;;;6.60;3.02;;;;;;;17.15;35.60;100132.46;1649558;86;21455;-67
2022/04/28 09:56:06;;;;;;;3.60;2.45;;;;;;;17.19;36.01;100125.36;1606566;87;20947;-66
2022/04/28 09:58:51;;;;;;;3.90;1.70;;;;;;;17.47;35.26;100132.47;1648484;87;20947;-67
2022/04/28 10:01:21;;;;;;;2.22;1.87;;;;;;;17.70;33.75;100135.75;1649279;86;20951;-67
2022/04/28 10:03:50;;;;;;;6.42;2.00;;;;;;;17.54;35.59;100124.77;1621310;87;20911;-66
2022/04/28 10:06:19;;;;;;;3.30;2.27;;;;;;;17.57;33.66;100135.88;1649188;85;20936;-68
2022/04/28 10:09:05;;;;;;;2.40;1.90;;;;;;;17.82;33.45;100135.95;1649478;87;20912;-68
2022/04/28 10:11:35;;;;;;;11.85;5.83;;;;;;;17.84;35.15;100131.05;1618294;87;20939;-67
2022/04/28 10:14:03;;;;;;;2.92;2.37;;;;;;;18.25;32.62;100141.42;1644072;87;21225;-68
2022/04/28 10:16:32;;;;;;;9.85;5.67;;;;;;;18.73;33.34;100138.08;1644019;87;21031;-69
2022/04/28 10:19:22;;;;;;;5.30;2.83;;;;;;;18.45;32.43;100134.92;1616526;87;21494;-68
2022/04/28 10:22:03;;;;;;;9.20;5.37;;;;;;;18.36;34.07;100132.86;1644239;85;20887;-66
2022/04/28 10:33:21;;;;;;;3.65;1.80;;;;;;;18.40;31.05;100131.19;1614962;88;21512;-69
2022/04/28 10:35:53;;;;;;;2.65;1.50;;;;;;;18.63;32.04;100128.70;1612081;89;21014;-68
2022/04/28 10:38:23;;;;;;;3.15;1.22;;;;;;;18.62;31.31;100134.70;1615021;88;20943;-66
2022/04/28 10:41:08;;;;;;;1.82;1.27;;;;;;;18.37;31.02;100130.95;1612011;89;21235;-66
2022/04/28 10:43:43;;;;;;;1.73;1.20;;;;;;;18.44;30.47;100131.41;1615174;88;20959;-68
2022/04/28 10:46:25;;;;;;;2.50;1.45;;;;;;;18.21;31.21;100128.44;1614779;88;20975;-68
2022/04/28 10:48:55;;;;;;;2.95;1.30;;;;;;;18.56;31.37;100118.75;1612268;89;21016;-64
2022/04/28 10:51:25;;;;;;;5.30;1.10;;;;;;;18.54;29.96;100119.58;1614591;88;20983;-66
2022/04/28 10:54:12;;;;;;;2.67;1.75;;;;;;;17.78;30.78;100117.50;1616149;87;21120;-68
2022/04/28 10:56:58;;;;;;;24.85;15.90;;;;;;;17.95;31.95;100116.25;1646373;87;20876;-67
2022/04/28 11:02:14;;;;;;;2.98;1.40;;;;;;;18.35;31.38;100120.95;1646250;87;21503;-67
2022/04/28 11:04:54;;;;;;;2.42;1.17;;;;;;;18.47;32.39;100119.97;1620559;88;21003;-65
2022/04/28 11:07:25;;;;;;;1.67;1.10;;;;;;;18.10;30.89;100119.33;1648786;87;21222;-67
2022/04/28 11:10:00;;;;;;;2.15;1.90;;;;;;;18.09;30.92;100118.53;1648928;87;20899;-67
2022/04/28 11:12:34;;;;;;;2.12;1.60;;;;;;;18.35;30.84;100115.52;1639035;86;20899;-67
2022/04/28 11:15:08;;;;;;;3.70;1.65;;;;;;;18.46;30.93;100113.45;1638017;87;21473;-66
2022/04/28 11:17:39;;;;;;;3.50;1.67;;;;;;;17.86;30.54;100112.02;1631272;87;21520;-68
2022/04/28 11:20:12;;;;;;;16.23;11.35;;;;;;;17.77;31.93;100113.70;1661076;86;21105;-65
2022/04/28 11:22:43;;;;;;;7.22;4.78;;;;;;;18.26;33.83;100103.11;1630941;87;20916;-67
2022/04/28 11:25:13;;;;;;;3.72;1.82;;;;;;;18.37;32.46;100099.17;1635251;87;20932;-68
2022/04/28 11:27:47;;;;;;;3.02;1.50;;;;;;;17.68;32.46;100110.80;1634978;87;20920;-68
2022/04/28 11:30:21;;;;;;;4.53;1.40;;;;;;;17.48;33.43;100101.51;1641139;86;20901;-68
2022/04/28 11:32:52;;;;;;;1.50;1.25;;;;;;;17.49;33.47;100100.40;1657483;86;21860;-69
2022/04/28 11:43:16;;;;;;;5.10;2.95;;;;;;;18.27;32.43;100084.89;1668293;85;20955;-69
2022/04/28 11:45:45;;;;;;;7.37;4.83;;;;;;;18.23;31.86;100081.13;1641311;86;20967;-69
2022/04/28 11:48:14;;;;;;;34.25;21.60;;;;;;;18.02;31.16;100085.47;1641252;86;21096;-65
2022/04/28 11:50:43;;;;;;;6.45;1.90;;;;;;;18.27;32.35;100080.81;1640664;86;20965;-66
2022/04/28 11:53:15;;;;;;;1.30;1.20;;;;;;;18.32;31.14;100088.34;1667654;85;20977;-66
2022/04/28 11:55:42;;;;;;;3.12;1.60;;;;;;;18.60;31.16;100089.88;1667613;86;20971;-68
2022/04/28 11:58:13;;;;;;;1.47;1.20;;;;;;;18.84;30.51;100089.27;1668175;86;20928;-69
2022/04/28 12:00:44;;;;;;;8.40;1.65;;;;;;;18.89;30.39;100084.31;1667696;86;21869;-69
2022/04/28 12:03:25;;;;;;;3.08;2.62;;;;;;;18.74;30.38;100081.25;1667638;86;20908;-69
2022/04/28 12:05:56;;;;;;;13.90;10.93;;;;;;;18.59;31.39;100074.13;1667649;86;20923;-68
2022/04/28 12:08:28;;;;;;;31.60;23.70;;;;;;;18.16;31.97;100066.02;1667516;85;20923;-69
2022/04/28 12:19:19;;;;;;;1.62;1.32;;;;;;;18.07;29.83;100066.39;1666516;86;21454;-68
2022/04/28 12:21:47;;;;;;;5.05;1.40;;;;;;;18.24;31.64;100057.75;1664631;86;20932;-68
2022/04/28 12:24:22;;;;;;;2.30;1.32;;;;;;;18.17;29.66;100062.19;1664281;86;20924;-66
2022/04/28 12:26:53;;;;;;;2.20;1.30;;;;;;;18.04;29.08;100066.98;1663795;86;20889;-69
2022/04/28 12:29:21;;;;;;;3.67;2.67;;;;;;;18.09;29.51;100057.41;1664121;86;20900;-69
2022/04/28 12:31:56;;;;;;;5.08;3.70;;;;;;;18.06;28.77;100063.43;1665738;84;20908;-66
2022/04/28 12:34:25;;;;;;;2.25;1.42;;;;;;;18.08;29.50;100048.18;1635303;86;20964;-67